createdAt,value
2018-09-20T00:00:39.043Z,6.43
2018-09-20T00:03:08.937Z,7.37
2018-09-20T00:05:38.844Z,6.40
2018-09-20T00:08:09.118Z,8.27
2018-09-20T00:10:39.015Z,6.87
2018-09-20T00:13:15.555Z,10.30
2018-09-20T00:15:45.450Z,7.10
2018-09-20T00:18:15.330Z,6.90
2018-09-20T00:20:45.198Z,6.70
2018-09-20T00:23:15.100Z,6.90
2018-09-20T00:25:44.986Z,7.27
2018-09-20T00:28:14.890Z,6.03
2018-09-20T00:30:44.770Z,6.03
2018-09-20T00:33:14.654Z,6.90
2018-09-20T00:35:44.523Z,8.67
2018-09-20T00:38:14.419Z,6.50
2018-09-20T00:40:44.303Z,7.10
2018-09-20T00:43:14.166Z,6.50
2018-09-20T00:45:44.028Z,6.60
2018-09-20T00:48:13.923Z,6.47
2018-09-20T00:50:43.808Z,6.30
2018-09-20T00:53:13.679Z,6.70
2018-09-20T00:55:43.554Z,7.27
2018-09-20T00:58:13.485Z,6.90
2018-09-20T01:00:43.380Z,6.17
2018-09-20T01:03:13.302Z,5.73
2018-09-20T01:05:43.188Z,6.20
2018-09-20T01:08:13.064Z,6.30
2018-09-20T01:10:42.959Z,8.20
2018-09-20T01:13:12.858Z,6.57
2018-09-20T01:15:42.758Z,6.57
2018-09-20T01:18:12.648Z,6.93
2018-09-20T01:20:42.523Z,7.37
2018-09-20T01:23:12.397Z,6.77
2018-09-20T01:25:42.283Z,7.13
2018-09-20T01:28:12.175Z,6.90
2018-09-20T01:30:42.059Z,7.00
2018-09-20T01:33:11.946Z,6.70
2018-09-20T01:35:41.831Z,6.80
2018-09-20T01:38:11.716Z,9.13
2018-09-20T01:40:41.591Z,6.77
2018-09-20T01:43:11.508Z,6.83
2018-09-20T01:45:41.398Z,6.77
2018-09-20T01:48:11.286Z,6.53
2018-09-20T01:50:41.173Z,6.77
2018-09-20T01:53:11.051Z,6.43
2018-09-20T01:55:41.068Z,6.97
2018-09-20T01:58:10.969Z,8.27
2018-09-20T02:00:40.851Z,7.67
2018-09-20T02:03:10.745Z,7.10
2018-09-20T02:05:40.627Z,6.97
2018-09-20T02:08:10.536Z,7.10
2018-09-20T02:10:40.439Z,6.87
2018-09-20T02:13:10.325Z,6.60
2018-09-20T02:15:40.226Z,6.83
2018-09-20T02:18:10.127Z,7.37
2018-09-20T02:20:40.023Z,7.50
2018-09-20T02:23:09.927Z,6.30
2018-09-20T02:25:39.849Z,6.93
2018-09-20T02:28:09.756Z,7.40
2018-09-20T02:30:39.676Z,8.03
2018-09-20T02:33:09.593Z,7.20
2018-09-20T02:35:39.547Z,7.27
2018-09-20T02:38:09.479Z,6.70
2018-09-20T02:40:39.385Z,7.63
2018-09-20T02:43:09.294Z,7.00
2018-09-20T02:45:39.191Z,6.67
2018-09-20T02:48:09.115Z,6.90
2018-09-20T02:50:39.057Z,7.20
2018-09-20T02:53:08.974Z,6.70
2018-09-20T02:55:38.862Z,6.63
2018-09-20T02:58:08.791Z,7.23
2018-09-20T03:00:38.679Z,6.97
2018-09-20T03:03:08.619Z,7.43
2018-09-20T03:05:38.526Z,6.93
2018-09-20T03:08:08.436Z,8.07
2018-09-20T03:10:38.346Z,7.10
2018-09-20T03:13:08.326Z,6.53
2018-09-20T03:15:38.217Z,7.60
2018-09-20T03:18:08.088Z,6.83
2018-09-20T03:20:37.966Z,8.07
2018-09-20T03:23:07.842Z,7.03
2018-09-20T03:25:37.739Z,7.10
2018-09-20T03:28:07.629Z,7.87
2018-09-20T03:30:37.635Z,6.90
2018-09-20T03:33:07.436Z,7.60
2018-09-20T03:35:37.319Z,7.37
2018-09-20T03:38:07.244Z,7.03
2018-09-20T03:40:37.114Z,7.47
2018-09-20T03:43:07.034Z,8.70
2018-09-20T03:45:36.925Z,7.67
2018-09-20T03:48:06.884Z,7.20
2018-09-20T03:50:36.759Z,8.00
2018-09-20T03:53:06.651Z,7.70
2018-09-20T03:55:36.602Z,9.00
2018-09-20T03:58:06.490Z,6.87
2018-09-20T04:00:36.372Z,7.67
2018-09-20T04:03:06.255Z,7.33
2018-09-20T04:05:36.143Z,7.47
2018-09-20T04:08:06.027Z,7.23
2018-09-20T04:10:35.906Z,7.33
2018-09-20T04:13:05.863Z,7.63
2018-09-20T04:15:35.779Z,7.43
2018-09-20T04:18:05.697Z,7.63
2018-09-20T04:20:35.624Z,7.23
2018-09-20T04:23:05.519Z,8.47
2018-09-20T04:25:35.452Z,14.90
2018-09-20T04:28:05.355Z,9.20
2018-09-20T04:30:35.255Z,7.60
2018-09-20T04:33:05.164Z,7.27
2018-09-20T04:35:35.072Z,7.10
2018-09-20T04:38:04.966Z,6.97
2018-09-20T04:40:34.879Z,7.30
2018-09-20T04:43:04.799Z,6.83
2018-09-20T04:45:34.706Z,7.83
2018-09-20T04:48:04.682Z,7.40
2018-09-20T04:50:34.671Z,6.50
2018-09-20T04:53:04.603Z,6.77
2018-09-20T04:55:34.498Z,7.63
2018-09-20T04:58:04.407Z,8.30
2018-09-20T05:00:34.324Z,7.77
2018-09-20T05:03:04.254Z,7.80
2018-09-20T05:05:34.158Z,7.33
2018-09-20T05:08:04.080Z,8.30
2018-09-20T05:10:34.138Z,7.60
2018-09-20T05:13:04.035Z,7.23
2018-09-20T05:15:33.970Z,7.87
2018-09-20T05:18:03.891Z,10.00
2018-09-20T05:20:33.878Z,8.27
2018-09-20T05:23:03.982Z,7.20
2018-09-20T05:25:33.863Z,8.00
2018-09-20T05:28:03.758Z,7.57
2018-09-20T05:30:33.803Z,7.57
2018-09-20T05:33:04.974Z,7.60
2018-09-20T05:35:35.000Z,7.90
2018-09-20T05:38:04.801Z,8.37
2018-09-20T05:40:34.734Z,8.03
2018-09-20T05:43:04.629Z,7.83
2018-09-20T05:45:34.518Z,8.63
2018-09-20T05:48:04.407Z,8.50
2018-09-20T05:50:34.345Z,8.47
2018-09-20T05:53:04.247Z,8.97
2018-09-20T05:55:34.209Z,7.57
2018-09-20T05:58:04.119Z,7.47
2018-09-20T06:00:34.220Z,7.97
2018-09-20T06:03:04.110Z,8.03
2018-09-20T06:05:34.063Z,8.83
2018-09-20T06:08:03.897Z,7.23
2018-09-20T06:10:33.825Z,8.10
2018-09-20T06:13:03.717Z,8.33
2018-09-20T06:15:33.638Z,8.47
2018-09-20T06:18:03.531Z,8.63
2018-09-20T06:20:33.447Z,8.57
2018-09-20T06:23:03.352Z,8.83
2018-09-20T06:25:33.259Z,8.67
2018-09-20T06:28:03.686Z,8.47
2018-09-20T06:30:33.589Z,10.13
2018-09-20T06:33:03.524Z,8.20
2018-09-20T06:35:33.968Z,9.13
2018-09-20T06:38:03.878Z,8.30
2018-09-20T06:40:33.799Z,10.53
2018-09-20T06:43:03.710Z,9.27
2018-09-20T06:45:33.690Z,7.90
2018-09-20T06:48:03.603Z,7.40
2018-09-20T06:50:33.778Z,13.07
2018-09-20T06:53:03.731Z,9.10
2018-09-20T06:55:33.784Z,10.17
2018-09-20T06:58:03.717Z,7.53
2018-09-20T07:00:33.626Z,8.10
2018-09-20T07:03:03.624Z,7.73
2018-09-20T07:05:33.454Z,7.73
2018-09-20T07:08:03.372Z,10.07
2018-09-20T07:10:33.280Z,8.73
2018-09-20T07:13:03.174Z,7.53
2018-09-20T07:15:33.172Z,13.10
2018-09-20T07:18:03.090Z,23.67
2018-09-20T07:20:33.004Z,36.53
2018-09-20T07:23:02.948Z,36.93
2018-09-20T07:25:32.967Z,31.90
2018-09-20T07:28:02.855Z,30.50
2018-09-20T07:30:32.776Z,22.83
2018-09-20T07:33:02.688Z,15.57
2018-09-20T07:35:32.591Z,11.30
2018-09-20T07:38:02.507Z,13.37
2018-09-20T07:40:32.388Z,11.17
2018-09-20T07:43:02.307Z,10.73
2018-09-20T07:45:32.224Z,9.00
2018-09-20T07:48:02.153Z,8.00
2018-09-20T07:50:32.240Z,11.13
2018-09-20T07:53:02.134Z,8.73
2018-09-20T07:55:32.054Z,9.23
2018-09-20T07:58:02.193Z,7.80
2018-09-20T08:00:32.155Z,7.80
2018-09-20T08:03:02.055Z,9.27
2018-09-20T08:05:31.988Z,6.77
2018-09-20T08:08:01.899Z,7.47
2018-09-20T08:10:31.827Z,8.27
2018-09-20T08:13:01.838Z,8.63
2018-09-20T08:15:31.645Z,8.17
2018-09-20T08:18:01.538Z,8.27
2018-09-20T08:20:31.423Z,9.00
2018-09-20T08:23:01.528Z,9.03
2018-09-20T08:25:31.494Z,7.60
2018-09-20T08:28:01.377Z,10.40
2018-09-20T08:30:31.271Z,9.13
2018-09-20T08:33:01.209Z,7.73
2018-09-20T08:35:31.091Z,9.07
2018-09-20T08:38:00.959Z,8.67
2018-09-20T08:40:30.843Z,7.63
2018-09-20T08:43:00.745Z,8.03
2018-09-20T08:45:30.666Z,7.97
2018-09-20T08:48:00.567Z,8.00
2018-09-20T08:50:30.526Z,8.97
2018-09-20T08:53:00.418Z,8.73
2018-09-20T08:55:30.395Z,12.47
2018-09-20T08:58:00.298Z,8.57
2018-09-20T09:00:30.275Z,8.07
2018-09-20T09:03:00.150Z,7.07
2018-09-20T09:05:30.032Z,8.93
2018-09-20T09:08:00.408Z,11.80
2018-09-20T09:10:30.351Z,9.03
2018-09-20T09:13:00.237Z,9.27
2018-09-20T09:15:30.155Z,8.13
2018-09-20T09:18:00.059Z,8.07
2018-09-20T09:20:29.938Z,7.10
2018-09-20T09:22:59.819Z,8.77
2018-09-20T09:25:29.699Z,9.17
2018-09-20T09:27:59.588Z,9.10
2018-09-20T09:30:29.478Z,8.53
2018-09-20T09:32:59.510Z,8.17
2018-09-20T09:35:29.390Z,7.40
2018-09-20T09:37:59.279Z,8.00
2018-09-20T09:40:29.158Z,7.30
2018-09-20T09:42:59.659Z,6.10
2018-09-20T09:45:30.389Z,8.63
2018-09-20T09:48:00.689Z,7.27
2018-09-20T09:50:31.066Z,8.07
2018-09-20T09:53:02.593Z,6.30
2018-09-20T09:55:32.967Z,6.87
2018-09-20T09:58:03.971Z,9.68
2018-09-20T10:00:36.217Z,7.60
2018-09-20T10:03:08.459Z,6.72
2018-09-20T10:05:39.080Z,5.50
2018-09-20T10:08:09.502Z,4.92
2018-09-20T10:10:40.730Z,5.75
2018-09-20T10:13:12.209Z,6.20
2018-09-20T10:15:42.551Z,6.95
2018-09-20T10:18:12.815Z,7.90
2018-09-20T10:20:43.359Z,7.92
2018-09-20T10:23:13.635Z,7.60
2018-09-20T10:25:45.003Z,5.65
2018-09-20T10:28:16.640Z,10.15
2018-09-20T10:30:46.939Z,7.22
2018-09-20T10:33:17.241Z,7.10
2018-09-20T10:35:47.631Z,7.62
2018-09-20T10:38:18.469Z,15.32
2018-09-20T10:40:48.804Z,8.68
2018-09-20T10:43:19.791Z,9.65
2018-09-20T10:45:50.081Z,8.55
2018-09-20T10:48:20.342Z,7.90
2018-09-20T10:50:50.956Z,7.97
2018-09-20T10:53:21.439Z,6.10
2018-09-20T10:55:52.683Z,6.37
2018-09-20T10:58:23.116Z,9.85
2018-09-20T11:00:53.416Z,8.30
2018-09-20T11:03:23.808Z,5.50
2018-09-20T11:05:53.982Z,8.75
2018-09-20T11:08:24.374Z,7.92
2018-09-20T11:10:54.533Z,10.25
2018-09-20T11:13:24.955Z,6.60
2018-09-20T11:15:55.226Z,6.55
2018-09-20T11:18:28.662Z,7.58
2018-09-20T11:20:59.103Z,7.58
2018-09-20T11:23:29.466Z,7.53
2018-09-20T11:25:59.606Z,6.25
2018-09-20T11:28:30.021Z,6.55
2018-09-20T11:31:00.243Z,5.35
2018-09-20T11:33:31.426Z,6.15
2018-09-20T11:36:02.063Z,5.85
2018-09-20T11:38:33.355Z,7.15
2018-09-20T11:41:03.332Z,11.93
2018-09-20T11:43:33.778Z,6.80
2018-09-20T11:46:04.574Z,9.10
2018-09-20T11:48:34.834Z,4.87
2018-09-20T11:51:05.218Z,5.05
2018-09-20T11:53:35.247Z,8.13
2018-09-20T11:56:05.459Z,4.72
2018-09-20T11:58:36.987Z,5.10
2018-09-20T12:01:07.287Z,4.60
2018-09-20T12:03:38.016Z,4.95
2018-09-20T12:06:08.273Z,7.58
2018-09-20T12:08:38.375Z,7.37
2018-09-20T12:11:08.722Z,6.70
2018-09-20T12:13:39.323Z,7.17
2018-09-20T12:16:10.432Z,6.15
2018-09-20T12:18:40.825Z,11.48
2018-09-20T12:21:11.782Z,6.10
2018-09-20T12:23:41.959Z,4.95
2018-09-20T12:26:13.419Z,5.03
2018-09-20T12:28:43.555Z,4.87
2018-09-20T12:31:13.934Z,5.10
2018-09-20T12:33:47.767Z,5.20
2018-09-20T12:36:18.048Z,6.05
2018-09-20T12:38:48.799Z,7.70
2018-09-20T12:41:19.031Z,5.00
2018-09-20T12:43:49.927Z,5.92
2018-09-20T12:46:21.475Z,6.25
2018-09-20T12:48:51.907Z,6.75
2018-09-20T12:51:22.353Z,7.65
2018-09-20T12:53:54.026Z,5.83
2018-09-20T12:56:24.160Z,8.98
2018-09-20T12:58:54.189Z,7.15
2018-09-20T13:01:24.698Z,5.92
2018-09-20T13:03:55.556Z,4.25
2018-09-20T13:06:26.982Z,4.62
2018-09-20T13:09:03.891Z,4.45
2018-09-20T13:11:34.448Z,6.10
2018-09-20T13:14:06.624Z,7.67
2018-09-20T13:16:36.818Z,8.75
2018-09-20T13:19:08.070Z,7.67
2018-09-20T13:21:38.364Z,7.00
2018-09-20T13:24:08.908Z,5.85
2018-09-20T13:26:39.479Z,5.47
2018-09-20T13:29:10.377Z,13.85
2018-09-20T13:31:40.892Z,5.30
2018-09-20T13:34:11.218Z,5.20
2018-09-20T13:36:44.856Z,6.80
2018-09-20T13:39:15.524Z,5.70
2018-09-20T13:41:47.093Z,6.65
2018-09-20T13:44:17.947Z,5.47
2018-09-20T13:46:48.769Z,7.78
2018-09-20T13:49:19.526Z,9.03
2018-09-20T13:51:50.099Z,6.42
2018-09-20T13:54:20.375Z,8.15
2018-09-20T13:56:50.680Z,5.70
2018-09-20T13:59:20.821Z,4.85
2018-09-20T14:01:51.048Z,7.33
2018-09-20T14:04:21.515Z,4.97
2018-09-20T14:06:52.047Z,5.87
2018-09-20T14:09:23.243Z,5.78
2018-09-20T14:11:53.780Z,4.83
2018-09-20T14:14:23.879Z,5.33
2018-09-20T14:16:54.413Z,8.43
2018-09-20T14:19:25.077Z,5.60
2018-09-20T14:21:55.364Z,5.30
2018-09-20T14:24:25.645Z,6.17
2018-09-20T14:26:55.846Z,4.97
2018-09-20T14:29:26.372Z,6.60
2018-09-20T14:31:56.914Z,5.60
2018-09-20T14:34:28.314Z,6.80
2018-09-20T14:36:59.906Z,7.53
2018-09-20T14:39:30.332Z,7.22
2018-09-20T14:42:00.830Z,6.53
2018-09-20T14:44:31.475Z,6.03
2018-09-20T14:47:02.705Z,5.17
2018-09-20T14:49:32.796Z,9.57
2018-09-20T14:52:04.015Z,6.45
2018-09-20T14:54:35.548Z,5.58
2018-09-20T14:57:06.796Z,4.87
2018-09-20T14:59:37.045Z,8.43
2018-09-20T15:02:07.602Z,5.97
2018-09-20T15:04:37.896Z,6.47
2018-09-20T15:07:09.048Z,4.78
2018-09-20T15:09:39.622Z,4.50
2018-09-20T15:12:11.398Z,5.80
2018-09-20T15:14:41.738Z,6.73
2018-09-20T15:17:11.934Z,9.35
2018-09-20T15:19:42.325Z,5.78
2018-09-20T15:22:12.507Z,5.87
2018-09-20T15:24:42.785Z,11.78
2018-09-20T15:27:14.162Z,6.30
2018-09-20T15:30:16.194Z,5.30
2018-09-20T15:32:47.565Z,5.13
2018-09-20T15:35:18.063Z,6.30
2018-09-20T15:37:48.332Z,7.53
2018-09-20T15:40:18.683Z,4.17
2018-09-20T15:42:48.731Z,5.42
2018-09-20T15:45:19.339Z,5.50
2018-09-20T15:47:49.638Z,4.90
2018-09-20T15:50:19.778Z,4.93
2018-09-20T15:52:50.117Z,5.30
2018-09-20T15:55:21.163Z,4.78
2018-09-20T15:57:51.949Z,7.12
2018-09-20T16:00:22.272Z,5.33
2018-09-20T16:02:52.628Z,10.57
2018-09-20T16:05:23.145Z,8.43
2018-09-20T16:07:53.052Z,6.17
2018-09-20T16:10:23.647Z,5.12
2018-09-20T16:12:53.900Z,4.77
2018-09-20T16:15:25.235Z,8.43
2018-09-20T16:17:55.655Z,12.63
2018-09-20T16:20:25.972Z,5.90
2018-09-20T16:22:56.514Z,6.03
2018-09-20T16:25:26.899Z,5.15
2018-09-20T16:28:03.970Z,4.85
2018-09-20T16:31:50.158Z,6.35
2018-09-20T16:34:50.832Z,5.73
2018-09-20T16:37:34.263Z,3.87
2018-09-20T16:40:04.827Z,4.90
2018-09-20T16:42:37.539Z,4.57
2018-09-20T16:45:07.745Z,4.70
2018-09-20T16:47:37.929Z,6.87
2018-09-20T16:50:08.043Z,4.73
2018-09-20T16:52:39.576Z,5.80
2018-09-20T16:55:10.001Z,7.17
2018-09-20T16:57:40.476Z,5.70
2018-09-20T17:00:12.160Z,5.17
2018-09-20T17:02:42.122Z,4.57
2018-09-20T17:05:12.027Z,6.20
2018-09-20T17:07:42.482Z,6.50
2018-09-20T17:10:12.299Z,4.20
2018-09-20T17:12:42.324Z,7.83
2018-09-20T17:15:12.449Z,4.93
2018-09-20T17:17:42.461Z,4.67
2018-09-20T17:20:12.645Z,5.33
2018-09-20T17:22:43.490Z,5.23
2018-09-20T17:25:13.458Z,7.17
2018-09-20T17:27:43.624Z,22.17
2018-09-20T17:30:13.504Z,6.70
2018-09-20T17:32:43.487Z,4.67
2018-09-20T17:35:14.107Z,5.53
2018-09-20T17:37:44.910Z,4.97
2018-09-20T17:40:15.590Z,4.57
2018-09-20T17:42:46.875Z,5.93
2018-09-20T17:45:16.763Z,5.90
2018-09-20T17:47:46.660Z,5.57
2018-09-20T17:50:16.542Z,7.63
2018-09-20T17:52:46.971Z,7.60
2018-09-20T17:55:17.203Z,5.23
2018-09-20T17:57:48.277Z,6.80
2018-09-20T18:00:18.172Z,8.60
2018-09-20T18:02:48.049Z,5.37
2018-09-20T18:05:17.969Z,6.23
2018-09-20T18:07:47.856Z,5.67
2018-09-20T18:10:17.800Z,7.90
2018-09-20T18:12:47.799Z,5.43
2018-09-20T18:15:17.684Z,6.13
2018-09-20T18:17:47.693Z,8.57
2018-09-20T18:20:17.537Z,8.53
2018-09-20T18:22:47.427Z,6.77
2018-09-20T18:25:17.310Z,5.40
2018-09-20T18:27:47.198Z,5.43
2018-09-20T18:30:18.001Z,5.87
2018-09-20T18:32:47.908Z,12.13
2018-09-20T18:35:24.607Z,6.40
2018-09-20T18:37:54.555Z,5.37
2018-09-20T18:40:24.564Z,7.17
2018-09-20T18:42:54.435Z,11.57
2018-09-20T18:45:24.593Z,10.67
2018-09-20T18:47:54.548Z,5.60
2018-09-20T18:50:26.652Z,5.60
2018-09-20T18:52:57.149Z,5.67
2018-09-20T18:55:27.840Z,6.37
2018-09-20T18:57:57.707Z,9.30
2018-09-20T19:00:28.542Z,7.20
2018-09-20T19:02:58.964Z,7.37
2018-09-20T19:05:29.719Z,8.10
2018-09-20T19:07:59.714Z,7.97
2018-09-20T19:10:29.887Z,9.77
2018-09-20T19:13:00.168Z,6.97
2018-09-20T19:15:30.152Z,6.40
2018-09-20T19:18:00.041Z,6.50
2018-09-20T19:20:29.922Z,7.03
2018-09-20T19:22:59.832Z,6.87
2018-09-20T19:25:29.819Z,5.43
2018-09-20T19:27:59.703Z,6.57
2018-09-20T19:30:29.685Z,6.57
2018-09-20T19:32:59.587Z,7.70
2018-09-20T19:35:29.482Z,6.87
2018-09-20T19:37:59.388Z,5.83
2018-09-20T19:40:29.380Z,8.30
2018-09-20T19:42:59.269Z,6.00
2018-09-20T19:45:29.192Z,5.93
2018-09-20T19:47:59.071Z,6.67
2018-09-20T19:50:28.974Z,9.03
2018-09-20T19:52:58.884Z,8.60
2018-09-20T19:55:28.755Z,6.13
2018-09-20T19:57:58.652Z,6.83
2018-09-20T20:00:28.582Z,7.27
2018-09-20T20:02:58.490Z,6.90
2018-09-20T20:05:28.377Z,6.33
2018-09-20T20:07:58.238Z,7.27
2018-09-20T20:10:28.124Z,7.17
2018-09-20T20:12:58.105Z,9.50
2018-09-20T20:15:28.047Z,8.97
2018-09-20T20:17:57.935Z,8.67
2018-09-20T20:20:28.846Z,8.30
2018-09-20T20:23:05.508Z,5.60
2018-09-20T20:25:35.487Z,6.87
2018-09-20T20:28:05.383Z,11.10
2018-09-20T20:30:35.267Z,6.50
2018-09-20T20:33:05.150Z,7.90
2018-09-20T20:35:35.032Z,7.43
2018-09-20T20:38:04.909Z,7.37
2018-09-20T20:40:34.874Z,9.30
2018-09-20T20:43:04.759Z,7.47
2018-09-20T20:45:34.704Z,11.77
2018-09-20T20:48:04.585Z,7.60
2018-09-20T20:50:34.468Z,7.47
2018-09-20T20:53:04.373Z,7.77
2018-09-20T20:55:34.222Z,7.30
2018-09-20T20:58:04.100Z,9.50
2018-09-20T21:00:33.984Z,11.40
2018-09-20T21:03:03.857Z,6.70
2018-09-20T21:05:33.736Z,6.73
2018-09-20T21:08:03.643Z,6.77
2018-09-20T21:10:33.527Z,6.90
2018-09-20T21:13:03.419Z,9.80
2018-09-20T21:15:33.315Z,7.87
2018-09-20T21:18:03.203Z,6.57
2018-09-20T21:20:33.080Z,6.40
2018-09-20T21:23:02.955Z,9.67
2018-09-20T21:25:32.835Z,6.57
2018-09-20T21:28:02.759Z,8.57
2018-09-20T21:30:32.807Z,7.63
2018-09-20T21:33:02.679Z,6.20
2018-09-20T21:35:32.559Z,9.07
2018-09-20T21:38:02.439Z,7.03
2018-09-20T21:40:32.323Z,8.03
2018-09-20T21:43:02.190Z,7.43
2018-09-20T21:45:32.078Z,6.87
2018-09-20T21:48:01.955Z,6.50
2018-09-20T21:50:31.846Z,6.37
2018-09-20T21:53:01.950Z,7.33
2018-09-20T21:55:31.839Z,7.73
2018-09-20T21:58:01.718Z,7.03
2018-09-20T22:00:31.603Z,8.40
2018-09-20T22:03:03.462Z,8.07
2018-09-20T22:05:34.451Z,6.17
2018-09-20T22:08:04.323Z,7.43
2018-09-20T22:10:34.199Z,6.87
2018-09-20T22:13:04.069Z,7.20
2018-09-20T22:15:33.987Z,7.73
2018-09-20T22:18:03.883Z,8.83
2018-09-20T22:20:33.800Z,6.83
2018-09-20T22:23:03.705Z,8.37
2018-09-20T22:25:33.626Z,7.23
2018-09-20T22:28:03.529Z,7.33
2018-09-20T22:30:33.447Z,6.87
2018-09-20T22:33:03.356Z,7.13
2018-09-20T22:35:39.570Z,6.43
2018-09-20T22:38:09.492Z,8.63
2018-09-20T22:40:39.414Z,8.20
2018-09-20T22:43:09.379Z,9.67
2018-09-20T22:45:39.264Z,6.30
2018-09-20T22:48:09.163Z,6.13
2018-09-20T22:50:39.133Z,7.37
2018-09-20T22:53:09.072Z,7.10
2018-09-20T22:55:38.970Z,7.00
2018-09-20T22:58:08.884Z,13.57
2018-09-20T23:00:38.793Z,8.53
2018-09-20T23:03:08.699Z,7.13
2018-09-20T23:05:38.598Z,7.27
2018-09-20T23:08:08.504Z,8.00
2018-09-20T23:10:38.407Z,7.13
2018-09-20T23:13:08.312Z,7.43
2018-09-20T23:15:38.232Z,7.13
2018-09-20T23:18:08.125Z,6.90
2018-09-20T23:20:38.016Z,7.23
2018-09-20T23:23:07.947Z,7.03
2018-09-20T23:25:37.843Z,8.80
2018-09-20T23:28:07.919Z,7.60
2018-09-20T23:30:37.895Z,8.47
2018-09-20T23:33:07.768Z,6.73
2018-09-20T23:35:37.655Z,8.30
2018-09-20T23:38:07.575Z,6.90
2018-09-20T23:40:37.455Z,7.77
2018-09-20T23:43:07.345Z,7.10
2018-09-20T23:45:37.255Z,8.00
2018-09-20T23:48:07.147Z,7.23
2018-09-20T23:50:37.034Z,7.23
2018-09-20T23:53:06.924Z,8.90
2018-09-20T23:55:36.845Z,7.47
2018-09-20T23:58:06.859Z,8.23
